Time;durP1;ratioP1;P1;durP2;ratioP2;P2;SDS_P1;SDS_P2;PMS_P1;PMS_P2;Temp;Humidity;BMP_temperature;BMP_pressure;BME280_temperature;BME280_humidity;BME280_pressure;Samples;Min_cycle;Max_cycle;Signal;HPM_P1;HPM_P2
2023/12/27 00:13:29;;;;;;;10.53;4.67;;;;;;;12.33;100.00;99541.97;31421487;28;20293;-75
2023/12/27 00:28:31;;;;;;;10.87;4.53;;;;;;;12.42;100.00;99548.25;31497417;28;20123;-75
2023/12/27 00:43:33;;;;;;;14.83;7.67;;;;;;;12.35;100.00;99572.22;31529092;28;20058;-75
2023/12/27 00:58:36;;;;;;;10.50;6.13;;;;;;;11.92;100.00;99544.53;31544154;28;20063;-74
2023/12/27 01:13:38;;;;;;;10.83;5.47;;;;;;;11.85;100.00;99533.88;31538091;28;20063;-81
2023/12/27 01:28:40;;;;;;;10.03;5.53;;;;;;;11.86;100.00;99545.53;31431486;28;20135;-81
2023/12/27 01:43:42;;;;;;;10.47;5.30;;;;;;;12.26;100.00;99562.03;31521837;28;20076;-80
2023/12/27 01:58:44;;;;;;;11.93;8.43;;;;;;;11.80;100.00;99585.38;31510482;28;20122;-81
2023/12/27 02:13:46;;;;;;;16.17;9.17;;;;;;;11.69;100.00;99596.56;31458400;28;20115;-81
2023/12/27 02:28:48;;;;;;;10.37;7.40;;;;;;;11.40;100.00;99569.50;31499072;28;20055;-81
2023/12/27 02:43:50;;;;;;;14.43;7.80;;;;;;;11.25;100.00;99585.50;31497097;28;20411;-81
2023/12/27 02:58:52;;;;;;;12.23;5.60;;;;;;;12.29;100.00;99591.06;31492282;28;20059;-81
2023/12/27 03:13:54;;;;;;;10.83;4.70;;;;;;;11.58;100.00;99615.16;31520131;28;20071;-81
2023/12/27 03:28:56;;;;;;;12.50;7.27;;;;;;;11.50;100.00;99589.41;31569172;28;20580;-81
2023/12/27 03:43:59;;;;;;;12.17;5.87;;;;;;;12.05;100.00;99600.84;31399058;28;20179;-81
2023/12/27 03:59:05;;;;;;;12.90;5.20;;;;;;;12.01;100.00;99594.78;31524122;28;20048;-81
2023/12/27 04:14:08;;;;;;;11.53;6.50;;;;;;;11.76;100.00;99574.63;31496282;28;20059;-81
2023/12/27 04:29:10;;;;;;;8.97;4.97;;;;;;;10.71;100.00;99576.66;31558021;28;20142;-81
2023/12/27 04:44:12;;;;;;;12.43;7.83;;;;;;;10.99;100.00;99570.38;31562988;28;20134;-80
2023/12/27 04:59:14;;;;;;;9.37;5.80;;;;;;;11.81;100.00;99565.88;31539008;28;20484;-81
2023/12/27 05:14:16;;;;;;;12.47;5.93;;;;;;;11.13;100.00;99588.22;31540023;28;20059;-81
2023/12/27 05:29:18;;;;;;;10.27;5.57;;;;;;;10.86;100.00;99588.63;31425592;28;20466;-81
2023/12/27 05:44:20;;;;;;;12.33;5.97;;;;;;;11.11;100.00;99601.47;31491371;28;20467;-74
2023/12/27 05:59:23;;;;;;;11.67;6.40;;;;;;;11.30;100.00;99624.97;31530089;28;20147;-75
2023/12/27 06:14:25;;;;;;;12.80;6.80;;;;;;;12.28;100.00;99650.19;31528491;28;20083;-76
2023/12/27 06:29:27;;;;;;;17.20;7.67;;;;;;;11.42;100.00;99628.88;31451060;28;20472;-76
2023/12/27 06:44:29;;;;;;;9.77;5.63;;;;;;;11.77;100.00;99644.13;31493659;28;20627;-75
2023/12/27 06:59:31;;;;;;;10.23;5.43;;;;;;;12.15;100.00;99651.44;31502183;28;20135;-73
2023/12/27 07:14:33;;;;;;;14.27;7.70;;;;;;;12.93;100.00;99684.13;31500278;28;20148;-76
2023/12/27 07:29:36;;;;;;;8.53;4.20;;;;;;;15.25;100.00;99692.72;31496520;28;20059;-76
2023/12/27 07:44:38;;;;;;;12.93;4.37;;;;;;;15.84;100.00;99734.16;31494746;28;20056;-75
2023/12/27 07:59:40;;;;;;;11.47;4.30;;;;;;;13.76;100.00;99759.75;31493852;28;20239;-73
2023/12/27 08:14:43;;;;;;;6.03;3.97;;;;;;;14.37;100.00;99782.72;31454288;28;20053;-78
2023/12/27 08:29:45;;;;;;;6.50;3.23;;;;;;;13.45;100.00;99783.53;31487940;28;20055;-80
2023/12/27 08:44:47;;;;;;;5.60;2.90;;;;;;;13.67;100.00;99773.34;31487149;28;20056;-89
2023/12/27 08:59:50;;;;;;;2.73;1.83;;;;;;;14.97;100.00;99772.03;31402593;28;20139;-78
2023/12/27 09:14:52;;;;;;;4.93;2.40;;;;;;;18.38;89.60;99781.75;31491243;28;20052;-81
2023/12/27 09:29:54;;;;;;;4.07;2.17;;;;;;;19.48;63.89;99761.50;31503068;28;20051;-87
2023/12/27 09:44:58;;;;;;;6.57;1.97;;;;;;;19.98;55.19;99761.91;31450571;28;20065;-85
2023/12/27 10:00:20;;;;;;;;;;;;;;;;;;;;;
2023/12/27 10:16:09;;;;;;;;;;;;;;;;;;;;;
2023/12/27 10:31:24;;;;;;;3.03;1.07;;;;;;;21.42;46.29;99718.84;31513836;28;20052;-78
2023/12/27 10:46:26;;;;;;;2.93;1.27;;;;;;;20.67;43.04;99715.66;31531334;28;20048;-86
2023/12/27 11:01:28;;;;;;;1.70;1.00;;;;;;;18.42;49.40;99722.59;31475101;28;20193;-81
2023/12/27 11:16:34;;;;;;;4.60;1.60;;;;;;;15.87;69.26;99739.47;31505058;28;20586;-82
2023/12/27 11:31:39;;;;;;;3.80;1.23;;;;;;;15.56;85.96;99758.91;31503821;28;20052;-82
2023/12/27 11:46:43;;;;;;;2.27;1.37;;;;;;;14.32;93.26;99764.19;31530870;28;20058;-83
2023/12/27 12:01:47;;;;;;;2.50;1.57;;;;;;;18.56;62.52;99751.25;31521935;28;20064;-81
2023/12/27 12:16:50;;;;;;;1.37;1.00;;;;;;;16.80;61.78;99754.16;31499042;28;20442;-79
2023/12/27 12:31:55;;;;;;;2.57;1.40;;;;;;;16.74;61.42;99761.53;31471592;28;20060;-78
2023/12/27 12:47:03;;;;;;;1.67;1.10;;;;;;;14.23;86.06;99791.47;31377042;28;20523;-89
2023/12/27 13:02:12;;;;;;;0.70;0.60;;;;;;;11.23;100.00;99896.88;31538844;28;20059;-80
2023/12/27 13:17:15;;;;;;;1.03;0.50;;;;;;;9.93;100.00;99900.19;31547079;28;20087;-87
2023/12/27 13:32:21;;;;;;;0.60;0.60;;;;;;;10.46;100.00;99916.56;31621773;28;20063;-88
2023/12/27 13:47:26;;;;;;;1.70;0.80;;;;;;;10.03;100.00;99932.94;31503061;28;20115;-78
2023/12/27 14:02:30;;;;;;;0.93;0.77;;;;;;;9.90;100.00;99979.69;31576000;28;20381;-83
2023/12/27 14:17:33;;;;;;;1.10;0.63;;;;;;;10.31;100.00;99992.06;31459856;28;20075;-83
2023/12/27 14:32:35;;;;;;;1.90;0.80;;;;;;;9.90;100.00;100023.06;31461219;28;20056;-85
2023/12/27 14:47:37;;;;;;;1.63;1.00;;;;;;;9.69;100.00;100047.03;31577625;28;20495;-81
2023/12/27 15:02:39;;;;;;;1.00;0.87;;;;;;;9.55;100.00;100048.06;31551785;28;20053;-88
2023/12/27 15:17:42;;;;;;;1.40;0.90;;;;;;;9.23;100.00;100052.03;31547139;28;20067;-77
2023/12/27 15:32:47;;;;;;;1.70;1.10;;;;;;;9.30;100.00;100085.59;31533104;28;20404;-88
2023/12/27 15:47:52;;;;;;;1.27;0.93;;;;;;;9.14;100.00;100097.06;31556543;28;20057;-91
2023/12/27 16:03:09;;;;;;;1.63;1.13;;;;;;;9.26;100.00;100103.84;31513141;28;20056;-87
2023/12/27 16:18:12;;;;;;;3.23;1.20;;;;;;;8.58;100.00;100114.78;31542880;28;20075;-91
2023/12/27 16:33:15;;;;;;;1.87;1.40;;;;;;;8.62;100.00;100126.31;31512057;28;20071;-88
2023/12/27 16:48:23;;;;;;;1.30;1.10;;;;;;;7.93;100.00;100157.09;31516113;28;20055;-79
2023/12/27 17:03:25;;;;;;;1.00;0.90;;;;;;;7.98;100.00;100165.56;31436476;28;20178;-80
2023/12/27 17:18:30;;;;;;;1.57;0.97;;;;;;;7.67;100.00;100199.75;31471424;28;20049;-85
2023/12/27 17:33:32;;;;;;;1.00;0.93;;;;;;;8.02;100.00;100220.38;31423528;28;20056;-87
2023/12/27 17:48:38;;;;;;;1.73;1.07;;;;;;;7.85;100.00;100240.94;31485745;28;20025;-85
2023/12/27 18:03:40;;;;;;;1.30;1.10;;;;;;;7.67;100.00;100264.59;31514830;28;20055;-78
2023/12/27 18:18:43;;;;;;;2.73;1.37;;;;;;;8.95;100.00;100298.06;31586353;28;20044;-80
2023/12/27 18:33:45;;;;;;;5.63;2.13;;;;;;;7.88;100.00;100307.72;31552853;28;20057;-79
2023/12/27 18:48:47;;;;;;;1.50;0.87;;;;;;;8.04;100.00;100339.69;31461332;28;20049;-78
2023/12/27 19:03:49;;;;;;;2.57;1.50;;;;;;;8.20;100.00;100355.44;31457630;28;20068;-80
2023/12/27 19:18:52;;;;;;;7.00;3.87;;;;;;;9.14;100.00;100387.63;31473879;28;20144;-78
2023/12/27 19:33:57;;;;;;;9.77;3.10;;;;;;;9.22;100.00;100397.19;31492346;28;20096;-77
2023/12/27 19:49:00;;;;;;;1.23;1.10;;;;;;;8.97;100.00;100412.16;31478154;28;20438;-78
2023/12/27 20:04:02;;;;;;;4.33;1.60;;;;;;;9.22;100.00;100442.47;31510315;28;20060;-78
2023/12/27 20:19:04;;;;;;;3.13;1.50;;;;;;;8.50;100.00;100463.88;31496955;28;20226;-79
2023/12/27 20:34:07;;;;;;;3.10;1.40;;;;;;;7.69;100.00;100518.97;31475415;28;20052;-79
2023/12/27 20:49:09;;;;;;;2.27;1.30;;;;;;;7.85;100.00;100546.38;31434615;28;20048;-80
2023/12/27 21:04:12;;;;;;;2.33;1.53;;;;;;;7.94;100.00;100556.00;31511325;28;20044;-79
2023/12/27 21:19:14;;;;;;;1.50;1.20;;;;;;;8.26;100.00;100580.28;31502173;28;20052;-77
2023/12/27 21:34:18;;;;;;;1.30;1.07;;;;;;;7.22;100.00;100600.41;31493665;28;20040;-78
2023/12/27 21:49:20;;;;;;;1.00;1.00;;;;;;;6.87;100.00;100623.41;31550950;28;20060;-77
2023/12/27 22:04:22;;;;;;;0.83;0.80;;;;;;;6.90;100.00;100630.00;31501532;28;20416;-80
2023/12/27 22:19:24;;;;;;;2.53;1.30;;;;;;;7.73;100.00;100651.41;31572673;28;20559;-80
2023/12/27 22:34:26;;;;;;;0.97;0.87;;;;;;;6.70;100.00;100683.50;31539708;28;20136;-79
2023/12/27 22:49:29;;;;;;;1.40;1.00;;;;;;;6.93;100.00;100702.88;31571518;28;20083;-77
2023/12/27 23:04:32;;;;;;;1.97;1.50;;;;;;;6.45;100.00;100721.88;31506506;28;20059;-78
2023/12/27 23:19:34;;;;;;;2.33;1.00;;;;;;;6.21;100.00;100738.63;31448790;28;20141;-79
2023/12/27 23:34:37;;;;;;;2.13;1.73;;;;;;;6.89;100.00;100780.34;31417656;28;20059;-78
2023/12/27 23:49:39;;;;;;;2.13;1.33;;;;;;;7.45;100.00;100819.63;31487973;28;20518;-78
